createdAt,value
2022-12-31T00:04:17.708Z,100513.56
2022-12-31T00:09:39.540Z,100511.81
2022-12-31T00:15:01.414Z,100511.03
2022-12-31T00:20:23.327Z,100501.63
2022-12-31T00:25:45.156Z,100484.59
2022-12-31T00:31:10.088Z,100484.63
2022-12-31T00:36:37.596Z,100475.34
2022-12-31T00:41:59.603Z,100475.28
2022-12-31T00:47:21.427Z,100466.75
2022-12-31T00:52:43.303Z,100477.81
2022-12-31T00:58:05.250Z,100451.47
2022-12-31T01:03:27.105Z,100456.59
2022-12-31T01:08:51.181Z,100448.09
2022-12-31T01:14:16.801Z,100432.88
2022-12-31T01:19:38.647Z,100420.97
2022-12-31T01:25:00.568Z,100404.81
2022-12-31T01:30:22.405Z,100405.69
2022-12-31T01:35:44.277Z,100407.38
2022-12-31T01:41:06.799Z,100407.41
2022-12-31T01:46:49.958Z,100386.13
2022-12-31T01:52:32.605Z,100398.03
2022-12-31T01:57:59.132Z,100376.81
2022-12-31T02:03:23.466Z,100379.34
2022-12-31T02:08:45.916Z,100372.56
2022-12-31T02:14:18.729Z,100356.44
2022-12-31T02:19:43.631Z,100354.72
2022-12-31T02:25:50.626Z,100344.53
2022-12-31T02:31:18.321Z,100324.97
2022-12-31T02:36:44.454Z,100308.81
2022-12-31T02:42:06.770Z,100298.59
2022-12-31T02:48:06.343Z,100320.72
2022-12-31T02:53:46.870Z,100322.41
2022-12-31T02:59:13.803Z,100316.47
2022-12-31T03:04:35.721Z,100316.44
2022-12-31T03:09:58.050Z,100308.78
2022-12-31T03:15:29.148Z,100320.66
2022-12-31T03:20:51.452Z,100332.53
2022-12-31T03:26:13.421Z,100331.63
2022-12-31T03:31:35.314Z,100306.09
2022-12-31T03:36:57.248Z,100307.66
2022-12-31T03:42:19.096Z,100322.91
2022-12-31T03:47:40.963Z,100332.16
2022-12-31T03:53:03.185Z,100327.72
2022-12-31T03:58:25.014Z,100310.47
2022-12-31T04:03:46.803Z,100322.16
2022-12-31T04:09:08.822Z,100326.97
2022-12-31T04:14:30.684Z,100326.84
2022-12-31T04:19:52.567Z,100334.41
2022-12-31T04:25:14.399Z,100318.88
2022-12-31T04:30:36.269Z,100317.09
2022-12-31T04:36:02.019Z,100294.81
2022-12-31T04:41:23.881Z,100310.91
2022-12-31T04:46:45.794Z,100300.59
2022-12-31T04:52:07.622Z,100291.13
2022-12-31T04:57:29.477Z,100294.44
2022-12-31T05:02:51.387Z,100298.63
2022-12-31T05:08:14.016Z,100306.28
2022-12-31T05:13:35.980Z,100298.63
2022-12-31T05:18:57.808Z,100313.84
2022-12-31T05:24:19.626Z,100294.09
2022-12-31T05:29:41.450Z,100302.66
2022-12-31T05:35:03.864Z,100300.84
2022-12-31T05:40:25.735Z,100304.28
2022-12-31T05:45:47.561Z,100305.72
2022-12-31T05:51:09.447Z,100294.72
2022-12-31T05:56:31.542Z,100296.25
2022-12-31T06:01:53.405Z,100272.34
2022-12-31T06:07:15.363Z,100280.00
2022-12-31T06:12:37.137Z,100299.44
2022-12-31T06:17:59.019Z,100291.72
2022-12-31T06:23:20.833Z,100291.66
2022-12-31T06:28:42.773Z,100295.78
2022-12-31T06:34:04.665Z,100317.84
2022-12-31T06:39:26.753Z,100322.97
2022-12-31T06:44:48.578Z,100298.97
2022-12-31T06:50:10.526Z,100295.22
2022-12-31T06:55:32.837Z,100318.38
2022-12-31T07:01:07.225Z,100310.59
2022-12-31T07:06:53.994Z,100318.91
2022-12-31T07:12:21.444Z,100311.13
2022-12-31T07:18:01.534Z,100322.03
2022-12-31T07:23:23.632Z,100349.00
2022-12-31T07:29:00.827Z,100357.34
2022-12-31T07:34:47.283Z,100353.91
2022-12-31T07:40:14.126Z,100359.69
2022-12-31T07:45:52.226Z,100356.34
2022-12-31T07:51:14.411Z,100354.59
2022-12-31T07:56:36.417Z,100355.84
2022-12-31T08:02:17.805Z,100337.69
2022-12-31T08:08:41.217Z,100347.47
2022-12-31T08:14:03.238Z,100360.97
2022-12-31T08:19:30.674Z,100361.41
2022-12-31T08:25:04.661Z,100370.63
2022-12-31T08:30:49.861Z,100358.69
2022-12-31T08:36:20.516Z,100355.94
2022-12-31T08:41:48.174Z,100372.72
2022-12-31T08:47:38.478Z,100376.16
2022-12-31T08:53:00.972Z,100385.16
2022-12-31T08:58:34.150Z,100383.25
2022-12-31T09:03:59.052Z,100378.63
2022-12-31T09:09:49.167Z,100390.50
2022-12-31T09:15:25.180Z,100382.88
2022-12-31T09:20:47.450Z,100356.81
2022-12-31T09:26:37.045Z,100357.97
2022-12-31T09:32:22.942Z,100348.56
2022-12-31T09:37:54.711Z,100327.53
2022-12-31T09:43:37.861Z,100326.72
2022-12-31T09:49:11.587Z,100326.88
2022-12-31T09:54:53.643Z,100316.75
2022-12-31T10:00:39.085Z,100313.50
2022-12-31T10:06:26.057Z,100325.78
2022-12-31T10:12:17.016Z,100322.00
2022-12-31T10:17:56.241Z,100308.81
2022-12-31T10:23:36.214Z,100308.06
2022-12-31T10:29:49.584Z,100303.63
2022-12-31T10:35:43.584Z,100283.25
2022-12-31T10:41:42.519Z,100278.44
2022-12-31T10:47:23.151Z,100294.22
2022-12-31T10:53:06.527Z,100269.78
2022-12-31T10:59:09.633Z,100261.16
2022-12-31T11:04:52.413Z,100247.84
2022-12-31T11:10:51.450Z,100247.53
2022-12-31T11:16:25.537Z,100211.22
2022-12-31T11:22:05.802Z,100210.28
2022-12-31T11:27:49.405Z,100214.97
2022-12-31T11:33:17.478Z,100230.47
2022-12-31T11:38:57.844Z,100238.59
2022-12-31T11:44:41.215Z,100237.09
2022-12-31T11:50:15.299Z,100206.78
2022-12-31T11:55:41.478Z,100203.91
2022-12-31T12:01:03.279Z,100231.88
2022-12-31T12:06:29.964Z,100207.03
2022-12-31T12:11:58.406Z,100239.09
2022-12-31T12:17:27.776Z,100216.22
2022-12-31T12:22:55.266Z,100202.81
2022-12-31T12:28:26.326Z,100193.28
2022-12-31T12:33:50.448Z,100197.38
2022-12-31T12:39:20.986Z,100180.53
2022-12-31T12:44:43.101Z,100182.72
2022-12-31T12:50:13.773Z,100189.94
2022-12-31T12:55:53.623Z,100168.38
2022-12-31T13:01:54.018Z,100182.94
2022-12-31T13:07:31.398Z,100185.34
2022-12-31T13:13:24.698Z,100172.66
2022-12-31T13:19:08.679Z,100160.19
2022-12-31T13:24:39.595Z,100139.78
2022-12-31T13:30:03.770Z,100153.31
2022-12-31T13:35:34.200Z,100149.75
2022-12-31T13:41:17.652Z,100165.59
2022-12-31T13:46:53.111Z,100163.34
2022-12-31T13:52:44.291Z,100176.59
2022-12-31T13:58:34.007Z,100176.22
2022-12-31T14:04:03.407Z,100180.59
2022-12-31T14:09:28.074Z,100171.69
2022-12-31T14:15:20.859Z,100178.28
2022-12-31T14:21:15.785Z,100191.38
2022-12-31T14:26:44.047Z,100189.03
2022-12-31T14:32:37.495Z,100188.34
2022-12-31T14:38:05.792Z,100195.84
2022-12-31T14:43:36.664Z,100199.16
2022-12-31T14:49:21.109Z,100202.09
2022-12-31T14:54:42.955Z,100205.97
2022-12-31T15:00:36.976Z,100191.22
2022-12-31T15:06:15.061Z,100195.94
2022-12-31T15:11:46.825Z,100194.88
2022-12-31T15:17:14.601Z,100189.66
2022-12-31T15:22:48.215Z,100185.16
2022-12-31T15:28:39.105Z,100193.50
2022-12-31T15:34:06.714Z,100177.63
2022-12-31T15:39:31.600Z,100179.94
2022-12-31T15:45:04.029Z,100176.84
2022-12-31T15:50:26.162Z,100178.75
2022-12-31T15:55:53.066Z,100173.41
2022-12-31T16:01:20.222Z,100175.63
2022-12-31T16:06:46.074Z,100177.88
2022-12-31T16:12:23.676Z,100167.34
2022-12-31T16:18:09.879Z,100185.00
2022-12-31T16:23:31.769Z,100188.44
2022-12-31T16:28:56.821Z,100206.25
2022-12-31T16:34:21.572Z,100206.03
2022-12-31T16:39:58.431Z,100215.72
2022-12-31T16:45:37.108Z,100204.44
2022-12-31T16:50:59.124Z,100191.31
2022-12-31T16:56:31.454Z,100204.94
2022-12-31T17:01:54.847Z,100194.63
2022-12-31T17:07:31.829Z,100204.63
2022-12-31T17:18:38.815Z,100199.88
2022-12-31T17:24:04.355Z,100213.63
2022-12-31T17:29:26.716Z,100207.53
2022-12-31T17:34:50.389Z,100224.84
2022-12-31T17:40:52.428Z,100222.59
2022-12-31T17:46:16.645Z,100225.13
2022-12-31T17:51:41.276Z,100219.28
2022-12-31T17:57:11.774Z,100224.06
2022-12-31T18:02:33.980Z,100212.44
2022-12-31T18:07:55.942Z,100225.03
2022-12-31T18:13:24.152Z,100233.66
2022-12-31T18:18:45.997Z,100242.66
2022-12-31T18:24:14.361Z,100237.19
2022-12-31T18:29:36.268Z,100253.34
2022-12-31T18:34:58.318Z,100243.19
2022-12-31T18:40:20.191Z,100250.53
2022-12-31T18:45:42.196Z,100243.72
2022-12-31T18:51:04.135Z,100239.09
2022-12-31T18:56:26.113Z,100229.63
2022-12-31T19:01:48.116Z,100249.25
2022-12-31T19:07:10.052Z,100245.25
2022-12-31T19:12:31.916Z,100267.53
2022-12-31T19:17:54.060Z,100269.94
2022-12-31T19:23:19.409Z,100290.50
2022-12-31T19:28:41.341Z,100273.97
2022-12-31T19:34:03.222Z,100268.38
2022-12-31T19:39:25.108Z,100263.19
2022-12-31T19:44:47.024Z,100272.34
2022-12-31T19:50:15.695Z,100285.03
2022-12-31T19:55:37.742Z,100269.72
2022-12-31T20:01:02.850Z,100265.47
2022-12-31T20:06:25.540Z,100272.19
2022-12-31T20:11:47.462Z,100270.66
2022-12-31T20:17:09.545Z,100274.72
2022-12-31T20:22:31.481Z,100246.72
2022-12-31T20:27:54.360Z,100251.56
2022-12-31T20:33:19.152Z,100267.41
2022-12-31T20:38:41.864Z,100274.09
2022-12-31T20:44:04.056Z,100289.16
2022-12-31T20:49:52.048Z,100291.13
2022-12-31T20:55:08.384Z,100291.75
2022-12-31T21:00:30.391Z,100281.38
2022-12-31T21:05:54.650Z,100284.44
2022-12-31T21:11:17.016Z,100293.66
2022-12-31T21:16:38.935Z,100295.03
2022-12-31T21:22:00.928Z,100285.34
2022-12-31T21:27:22.873Z,100291.28
2022-12-31T21:32:44.710Z,100289.03
2022-12-31T21:38:07.521Z,100302.28
2022-12-31T21:43:30.057Z,100295.41
2022-12-31T21:48:56.825Z,100303.75
2022-12-31T21:54:18.720Z,100281.94
2022-12-31T21:59:46.375Z,100292.25
2022-12-31T22:05:18.478Z,100282.50
2022-12-31T22:10:51.979Z,100297.31
2022-12-31T22:16:14.999Z,100289.88
2022-12-31T22:21:37.031Z,100283.22
2022-12-31T22:26:58.888Z,100287.97
2022-12-31T22:32:40.943Z,100290.84
2022-12-31T22:38:09.855Z,100282.56
2022-12-31T22:43:35.743Z,100282.94
2022-12-31T22:48:59.943Z,100284.25
2022-12-31T22:54:21.906Z,100291.28
2022-12-31T22:59:43.876Z,100304.75
2022-12-31T23:05:14.957Z,100283.78
2022-12-31T23:10:38.382Z,100301.25
2022-12-31T23:16:00.372Z,100288.19
2022-12-31T23:21:22.326Z,100288.94
2022-12-31T23:26:44.316Z,100294.00
2022-12-31T23:32:07.505Z,100270.34
2022-12-31T23:37:29.475Z,100268.66
2022-12-31T23:42:51.330Z,100283.59
2022-12-31T23:48:13.183Z,100292.69
2022-12-31T23:53:37.549Z,100297.41
2022-12-31T23:59:00.115Z,100290.31
